默认 日期 大小 文件数 浏览量 最新下载 xml
the age磁力链接相关资源由用户搜索指令自动获取,结果来源于网络,本站不存储任何资料,亦不承担任何责任,请于24小时内删除,搜索到12000个磁力,显示前4000条数据,用时81ms。
    {"밀정 The Age of Shadows. 2016.1080p.KOR.FHDRip.H264.AAC-H2O.mp4": 2793092110}
创建时间: 2018-11-07 01:20:59 大小:2.6 GB 文件数量:1 热度:11 最近下载:2023-04-10 02:40:04
    ... - Sex, Class and Power in the Age of Profumo (2013) {VTS}.lit ... - Sex, Class and Power in the Age of Profumo (2013) {VTS}.azw3 ... - Sex, Class and Power in the Age of Profumo (2013) {VTS}.epub ... - Sex, Class and Power in the Age of Profumo (2013) {VTS}.mobi ...
创建时间: 2018-11-07 06:11:48 大小:9.96 MB 文件数量:7 热度:18 最近下载:2025-08-01 23:48:03
    {"The.Age.of.Shadows.2016.BluRay.x265.10bit.Kor-Eng.2Audio-NooN.mkv": 2311457836}
创建时间: 2018-11-07 09:03:33 大小:2.15 GB 文件数量:1 热度:14 最近下载:2024-01-28 18:04:02
    ... of TrySail First Live Tour 'The Age of Discovery' [BDRip 1920x1080 ... TrySail - TrySail First Live Tour “The Age of Discovery”[初回生 ... TrySail - TrySail First Live Tour “The Age of Discovery”[初回生 ... Raws] TrySail First Live Tour 'The Age of Discovery' [BDRip 1920x1080 ...
创建时间: 2018-11-07 09:56:20 大小:20.01 GB 文件数量:12 热度:9 最近下载:2025-10-12 03:35:02
    {"The.Age.of.Adaline.2015.720p.WEB-DL.XviD.AC3-RARBG.avi": 2990718152, "The.Age.of.Adaline.2015.720p.WEB-DL.XviD.AC3-RARBG.nfo": 2995, "The.Age.of.Adaline.2015.720p.WEB-DL.XviD.AC3-RARBG.srt": 85068}
创建时间: 2018-11-07 10:18:07 大小:2.79 GB 文件数量:3 热度:5 最近下载:2023-04-10 06:10:02
    {"The.Age.of.Shadows.Extras-Grym": {"Cast.Interviews-Grym.mkv": 133472364, "Video.Interview.with.Director.Kim.Jee-Woon-Grym.mkv": 527878289}, "Torrent downloaded from......txt": 100, "The.Age.of.Shadows.2016.Bluray.1080p.DTS-HD.x264-Grym.mkv": 18576087225}
创建时间: 2018-11-07 15:12:34 大小:17.92 GB 文件数量:4 热度:14 最近下载:2024-10-04 11:49:01
    {"Subs": {"2_Eng.srt": 130272, "3_Eng.srt": 137313}, "RARBG.txt": 30, "The.Age.of.Innocence.1993.1080p.REMASTERED.BluRay.H264.AAC-RARBG.mp4": 2838693619}
创建时间: 2018-11-07 16:26:02 大小:2.64 GB 文件数量:4 热度:11 最近下载:2024-10-04 17:11:01
    ... side b.jpg": 3465054, "the 5th dimension-the age of aquarius-side a ... -studio 54 vinyl series.mp3": 46814202, "the ... 5th dimension-the age of aquarius-side b ...
创建时间: 2018-11-07 16:26:09 大小:111.8 MB 文件数量:7 热度:17 最近下载:2025-08-15 16:43:02
    {"NFO-iFT.nfo": 536, "The.Age.Of.Adaline.2015.BRRip.XviD.AC3-iFT.avi": 1602677212}
创建时间: 2018-11-07 18:50:39 大小:1.49 GB 文件数量:2 热度:5 最近下载:2023-04-10 09:00:16
    {"free audiobook version.txt": 584, "Robot-Proof_ Higher Education in the Age of Artificial Intelligence by Joseph E. Aoun.azw3": 597595}
创建时间: 2018-11-07 19:23:20 大小:584.16 KB 文件数量:2 热度:10 最近下载:2024-10-07 17:38:01
    {"audiobook-sample.mp3": 2399811, "free audiobook version.txt": 366, "Humans Need Not Apply - Jerry Kaplan.epub": 1875345}
创建时间: 2018-11-07 19:48:58 大小:4.08 MB 文件数量:3 热度:13 最近下载:2025-01-09 04:48:01
    ... ": 354137, "The Age Of Love - The Age Of Love.cue": 744, "The Age Of Love - The Age Of ... Love.log": 4840, "The Age Of Love - The Age Of ... "The Age of Love - The Age of Love (single).log": 6716, "The Age of Love - The Age of ...
创建时间: 2018-11-08 02:13:14 大小:3.42 GB 文件数量:155 热度:8 最近下载:2024-12-25 20:37:02
    {"01. Why_.wma": 9861663, "08. Junk.wma": 10445799, "07. Heatwave.wma": 6142295, "14. Memories.wma": 7656207, "03. Screaming.wma": 11149077, "04. No More War.wma": 10660301, "10. I Feel Love.wma": 15512229, "15. Puit D'Amour.wma": 4163355, "06. Smalltown ...
创建时间: 2018-11-08 21:03:54 大小:186.61 MB 文件数量:16 热度:7 最近下载:2023-04-10 19:30:03
    {"The Age of Adaline (www.kinоkopilkа.tv).jpg": 101453, "KinoKopilka.tv - Best Movies BitTorrent Network.url": 154, "The Age of Adaline [BDRip-720p] (www.kinоkopilka.tv).mkv": 5905119842}
创建时间: 2018-11-09 18:43:16 大小:5.5 GB 文件数量:3 热度:5 最近下载:2023-04-13 02:20:01
    {"japhson-taoi-1080p.mkv": 10553803155}
创建时间: 2018-11-09 19:23:48 大小:9.83 GB 文件数量:1 热度:19 最近下载:2025-05-25 22:31:02
    {"Info.txt": 1154, "Movie.avi": 1113325568, "Poster.jpg": 118628, "Screen.png": 212371}
创建时间: 2018-11-09 19:44:37 大小:1.04 GB 文件数量:4 热度:5 最近下载:2023-04-13 02:40:04
    {"age_of_decadence_wallpaper.zip": 565141, "setup_the_age_of_decadence_32_1.6.0.0067_(15442).exe": 1196037248, "setup_the_age_of_decadence_64_1.6.0.0067_(15442).exe": 1196037400, "patch_the_age_of_decadence_1.6.0.0067_(15442)_to_1.6.0.0087_(15943).exe": ...
创建时间: 2018-11-10 02:23:28 大小:2.24 GB 文件数量:4 热度:4 最近下载:2023-04-13 05:10:03
    {"Crack": {"age3y.rar": 4277423}, "Cover.jpg": 209008, "Age of Empires II-The Age of the Kings.exe": 575884535}
创建时间: 2018-11-10 05:10:09 大小:553.48 MB 文件数量:3 热度:8 最近下载:2025-01-28 16:01:47
    {"Subs": {"2_Eng.srt": 130272, "3_Eng.srt": 137313}, "RARBG.txt": 30, "The.Age.of.Innocence.1993.720p.REMASTERED.BluRay.H264.AAC-RARBG.mp4": 1799432411}
创建时间: 2018-11-10 11:08:12 大小:1.68 GB 文件数量:4 热度:11 最近下载:2025-05-01 12:45:02
    {"Sample": {"teracod-taoa-sample.avi": 12816294}, "teracod-taoa.avi": 1466544128, "teracod-taoa.nfo": 12219, "teracod-taoa.sfv": 97}
创建时间: 2018-11-10 12:50:32 大小:1.38 GB 文件数量:4 热度:9 最近下载:2025-10-14 04:28:03